sensor_id;sensor_type;location;lat;lon;timestamp;P1;durP1;ratioP1;P2;durP2;ratioP2
58758;SDS011;46777;47.482;19.054;2022-09-09T00:02:28;4.93;;;4.63;;
58758;SDS011;46777;47.482;19.054;2022-09-09T00:08:07;5.22;;;4.82;;
58758;SDS011;46777;47.482;19.054;2022-09-09T00:11:00;4.90;;;4.40;;
58758;SDS011;46777;47.482;19.054;2022-09-09T00:13:51;4.60;;;4.20;;
58758;SDS011;46777;47.482;19.054;2022-09-09T00:16:36;4.63;;;4.22;;
58758;SDS011;46777;47.482;19.054;2022-09-09T00:25:22;5.07;;;4.53;;
58758;SDS011;46777;47.482;19.054;2022-09-09T00:28:07;4.68;;;4.32;;
58758;SDS011;46777;47.482;19.054;2022-09-09T00:30:57;5.35;;;4.60;;
58758;SDS011;46777;47.482;19.054;2022-09-09T00:33:45;4.80;;;4.38;;
58758;SDS011;46777;47.482;19.054;2022-09-09T00:36:30;4.68;;;4.38;;
58758;SDS011;46777;47.482;19.054;2022-09-09T00:42:22;5.10;;;4.70;;
58758;SDS011;46777;47.482;19.054;2022-09-09T00:47:58;5.32;;;4.93;;
58758;SDS011;46777;47.482;19.054;2022-09-09T00:53:51;4.97;;;4.60;;
58758;SDS011;46777;47.482;19.054;2022-09-09T00:56:47;4.90;;;4.50;;
58758;SDS011;46777;47.482;19.054;2022-09-09T01:02:31;4.82;;;4.43;;
58758;SDS011;46777;47.482;19.054;2022-09-09T01:08:22;4.90;;;4.60;;
58758;SDS011;46777;47.482;19.054;2022-09-09T01:13:58;4.60;;;4.30;;
58758;SDS011;46777;47.482;19.054;2022-09-09T01:16:44;5.07;;;4.60;;
58758;SDS011;46777;47.482;19.054;2022-09-09T01:22:29;5.03;;;4.55;;
58758;SDS011;46777;47.482;19.054;2022-09-09T01:25:20;4.80;;;4.32;;
58758;SDS011;46777;47.482;19.054;2022-09-09T01:28:08;4.85;;;4.45;;
58758;SDS011;46777;47.482;19.054;2022-09-09T01:30:52;4.95;;;4.57;;
58758;SDS011;46777;47.482;19.054;2022-09-09T01:33:37;5.05;;;4.65;;
58758;SDS011;46777;47.482;19.054;2022-09-09T01:36:24;4.95;;;4.65;;
58758;SDS011;46777;47.482;19.054;2022-09-09T01:39:10;4.90;;;4.55;;
58758;SDS011;46777;47.482;19.054;2022-09-09T01:41:55;4.82;;;4.50;;
58758;SDS011;46777;47.482;19.054;2022-09-09T01:44:39;5.43;;;5.00;;
58758;SDS011;46777;47.482;19.054;2022-09-09T01:47:24;4.90;;;4.60;;
58758;SDS011;46777;47.482;19.054;2022-09-09T01:50:08;5.75;;;4.60;;
58758;SDS011;46777;47.482;19.054;2022-09-09T01:52:56;5.00;;;4.70;;
58758;SDS011;46777;47.482;19.054;2022-09-09T01:55:42;5.35;;;4.90;;
58758;SDS011;46777;47.482;19.054;2022-09-09T01:58:34;5.13;;;4.72;;
58758;SDS011;46777;47.482;19.054;2022-09-09T02:13:09;5.30;;;4.80;;
58758;SDS011;46777;47.482;19.054;2022-09-09T02:16:00;6.18;;;5.10;;
58758;SDS011;46777;47.482;19.054;2022-09-09T02:22:10;5.60;;;5.10;;
58758;SDS011;46777;47.482;19.054;2022-09-09T02:24:56;5.82;;;4.88;;
58758;SDS011;46777;47.482;19.054;2022-09-09T02:27:43;5.47;;;5.15;;
58758;SDS011;46777;47.482;19.054;2022-09-09T02:30:29;5.10;;;4.70;;
58758;SDS011;46777;47.482;19.054;2022-09-09T02:33:16;4.97;;;4.68;;
58758;SDS011;46777;47.482;19.054;2022-09-09T02:36:01;5.07;;;4.68;;
58758;SDS011;46777;47.482;19.054;2022-09-09T02:38:47;4.70;;;4.40;;
58758;SDS011;46777;47.482;19.054;2022-09-09T02:41:38;5.13;;;4.75;;
58758;SDS011;46777;47.482;19.054;2022-09-09T02:44:23;4.85;;;4.40;;
58758;SDS011;46777;47.482;19.054;2022-09-09T02:53:01;4.70;;;4.30;;
58758;SDS011;46777;47.482;19.054;2022-09-09T02:55:51;4.40;;;4.10;;
58758;SDS011;46777;47.482;19.054;2022-09-09T02:58:38;4.70;;;4.40;;
58758;SDS011;46777;47.482;19.054;2022-09-09T03:01:23;5.05;;;4.63;;
58758;SDS011;46777;47.482;19.054;2022-09-09T03:04:07;4.90;;;4.60;;
58758;SDS011;46777;47.482;19.054;2022-09-09T03:06:52;4.68;;;4.38;;
58758;SDS011;46777;47.482;19.054;2022-09-09T03:09:36;5.10;;;4.60;;
58758;SDS011;46777;47.482;19.054;2022-09-09T03:12:21;4.68;;;4.38;;
58758;SDS011;46777;47.482;19.054;2022-09-09T03:15:05;4.75;;;4.45;;
58758;SDS011;46777;47.482;19.054;2022-09-09T03:17:50;4.93;;;4.57;;
58758;SDS011;46777;47.482;19.054;2022-09-09T03:20:35;5.22;;;4.93;;
58758;SDS011;46777;47.482;19.054;2022-09-09T03:23:19;4.60;;;4.20;;
58758;SDS011;46777;47.482;19.054;2022-09-09T03:26:04;4.80;;;4.40;;
58758;SDS011;46777;47.482;19.054;2022-09-09T03:28:48;4.68;;;4.28;;
58758;SDS011;46777;47.482;19.054;2022-09-09T03:31:34;4.70;;;4.40;;
58758;SDS011;46777;47.482;19.054;2022-09-09T03:34:20;5.05;;;4.38;;
58758;SDS011;46777;47.482;19.054;2022-09-09T03:37:04;4.68;;;4.30;;
58758;SDS011;46777;47.482;19.054;2022-09-09T03:39:48;4.80;;;4.40;;
58758;SDS011;46777;47.482;19.054;2022-09-09T03:42:33;4.32;;;4.13;;
58758;SDS011;46777;47.482;19.054;2022-09-09T03:45:17;4.70;;;4.30;;
58758;SDS011;46777;47.482;19.054;2022-09-09T03:48:02;4.80;;;4.38;;
58758;SDS011;46777;47.482;19.054;2022-09-09T03:50:50;4.95;;;4.57;;
58758;SDS011;46777;47.482;19.054;2022-09-09T03:53:35;4.82;;;4.43;;
58758;SDS011;46777;47.482;19.054;2022-09-09T03:56:20;4.18;;;3.97;;
58758;SDS011;46777;47.482;19.054;2022-09-09T03:59:05;4.43;;;4.13;;
58758;SDS011;46777;47.482;19.054;2022-09-09T04:01:50;5.00;;;4.53;;
58758;SDS011;46777;47.482;19.054;2022-09-09T04:04:35;4.95;;;4.50;;
58758;SDS011;46777;47.482;19.054;2022-09-09T04:07:19;5.22;;;4.82;;
58758;SDS011;46777;47.482;19.054;2022-09-09T04:10:04;4.78;;;4.47;;
58758;SDS011;46777;47.482;19.054;2022-09-09T04:12:48;5.20;;;4.80;;
58758;SDS011;46777;47.482;19.054;2022-09-09T04:15:32;5.45;;;5.05;;
58758;SDS011;46777;47.482;19.054;2022-09-09T04:18:19;5.20;;;4.90;;
58758;SDS011;46777;47.482;19.054;2022-09-09T04:21:04;6.22;;;5.28;;
58758;SDS011;46777;47.482;19.054;2022-09-09T04:23:50;5.20;;;4.90;;
58758;SDS011;46777;47.482;19.054;2022-09-09T04:26:35;5.63;;;5.22;;
58758;SDS011;46777;47.482;19.054;2022-09-09T04:29:20;5.60;;;5.20;;
58758;SDS011;46777;47.482;19.054;2022-09-09T04:32:05;5.60;;;5.30;;
58758;SDS011;46777;47.482;19.054;2022-09-09T04:34:49;5.40;;;5.10;;
58758;SDS011;46777;47.482;19.054;2022-09-09T04:37:33;6.35;;;5.10;;
58758;SDS011;46777;47.482;19.054;2022-09-09T04:40:17;5.60;;;5.20;;
58758;SDS011;46777;47.482;19.054;2022-09-09T04:43:02;5.50;;;5.10;;
58758;SDS011;46777;47.482;19.054;2022-09-09T04:45:50;5.57;;;5.18;;
58758;SDS011;46777;47.482;19.054;2022-09-09T04:48:35;5.72;;;5.15;;
58758;SDS011;46777;47.482;19.054;2022-09-09T04:51:19;5.75;;;5.25;;
58758;SDS011;46777;47.482;19.054;2022-09-09T04:54:04;5.70;;;5.30;;
58758;SDS011;46777;47.482;19.054;2022-09-09T04:56:50;5.18;;;4.78;;
58758;SDS011;46777;47.482;19.054;2022-09-09T04:59:34;5.03;;;4.70;;
58758;SDS011;46777;47.482;19.054;2022-09-09T05:02:18;5.30;;;5.00;;
58758;SDS011;46777;47.482;19.054;2022-09-09T05:05:03;5.50;;;5.10;;
58758;SDS011;46777;47.482;19.054;2022-09-09T05:07:47;5.68;;;5.18;;
58758;SDS011;46777;47.482;19.054;2022-09-09T05:10:32;5.70;;;5.18;;
58758;SDS011;46777;47.482;19.054;2022-09-09T05:13:17;6.15;;;5.30;;
58758;SDS011;46777;47.482;19.054;2022-09-09T05:16:01;6.50;;;5.90;;
58758;SDS011;46777;47.482;19.054;2022-09-09T05:18:46;6.57;;;6.07;;
58758;SDS011;46777;47.482;19.054;2022-09-09T05:21:30;6.47;;;5.97;;
58758;SDS011;46777;47.482;19.054;2022-09-09T05:24:15;6.65;;;6.15;;
58758;SDS011;46777;47.482;19.054;2022-09-09T05:27:00;6.13;;;5.70;;
58758;SDS011;46777;47.482;19.054;2022-09-09T05:29:46;6.03;;;5.55;;
58758;SDS011;46777;47.482;19.054;2022-09-09T05:32:32;7.05;;;6.45;;
58758;SDS011;46777;47.482;19.054;2022-09-09T05:35:18;6.70;;;6.20;;
58758;SDS011;46777;47.482;19.054;2022-09-09T05:38:03;6.50;;;5.90;;
58758;SDS011;46777;47.482;19.054;2022-09-09T05:40:47;6.10;;;5.70;;
58758;SDS011;46777;47.482;19.054;2022-09-09T05:43:32;5.93;;;5.53;;
58758;SDS011;46777;47.482;19.054;2022-09-09T05:46:21;6.95;;;6.38;;
58758;SDS011;46777;47.482;19.054;2022-09-09T05:49:05;6.15;;;5.75;;
58758;SDS011;46777;47.482;19.054;2022-09-09T05:51:50;6.30;;;5.80;;
58758;SDS011;46777;47.482;19.054;2022-09-09T05:54:35;8.40;;;7.70;;
58758;SDS011;46777;47.482;19.054;2022-09-09T05:57:19;6.65;;;6.25;;
58758;SDS011;46777;47.482;19.054;2022-09-09T06:00:04;6.53;;;6.03;;
58758;SDS011;46777;47.482;19.054;2022-09-09T06:02:52;7.38;;;6.72;;
58758;SDS011;46777;47.482;19.054;2022-09-09T06:05:36;6.90;;;6.25;;
58758;SDS011;46777;47.482;19.054;2022-09-09T06:08:21;6.70;;;6.20;;
58758;SDS011;46777;47.482;19.054;2022-09-09T06:11:07;8.82;;;6.60;;
58758;SDS011;46777;47.482;19.054;2022-09-09T06:13:52;6.95;;;6.45;;
58758;SDS011;46777;47.482;19.054;2022-09-09T06:16:38;7.53;;;6.90;;
58758;SDS011;46777;47.482;19.054;2022-09-09T06:19:22;6.90;;;6.40;;
58758;SDS011;46777;47.482;19.054;2022-09-09T06:22:08;7.07;;;6.57;;
58758;SDS011;46777;47.482;19.054;2022-09-09T06:24:56;10.23;;;9.43;;
58758;SDS011;46777;47.482;19.054;2022-09-09T06:27:41;12.80;;;11.60;;
58758;SDS011;46777;47.482;19.054;2022-09-09T06:30:26;9.18;;;8.48;;
58758;SDS011;46777;47.482;19.054;2022-09-09T06:33:10;7.43;;;6.82;;
58758;SDS011;46777;47.482;19.054;2022-09-09T06:35:55;11.82;;;10.90;;
58758;SDS011;46777;47.482;19.054;2022-09-09T06:38:41;8.93;;;8.23;;
58758;SDS011;46777;47.482;19.054;2022-09-09T06:41:27;7.28;;;6.63;;
58758;SDS011;46777;47.482;19.054;2022-09-09T06:44:11;6.97;;;6.47;;
58758;SDS011;46777;47.482;19.054;2022-09-09T06:46:55;7.07;;;6.40;;
58758;SDS011;46777;47.482;19.054;2022-09-09T06:49:40;6.60;;;6.10;;
58758;SDS011;46777;47.482;19.054;2022-09-09T06:52:24;7.05;;;6.35;;
58758;SDS011;46777;47.482;19.054;2022-09-09T06:55:08;7.18;;;6.57;;
58758;SDS011;46777;47.482;19.054;2022-09-09T06:57:53;7.22;;;6.65;;
58758;SDS011;46777;47.482;19.054;2022-09-09T07:00:38;6.95;;;6.45;;
58758;SDS011;46777;47.482;19.054;2022-09-09T07:03:23;6.93;;;6.32;;
58758;SDS011;46777;47.482;19.054;2022-09-09T07:06:08;7.30;;;6.60;;
58758;SDS011;46777;47.482;19.054;2022-09-09T07:08:56;7.30;;;6.60;;
58758;SDS011;46777;47.482;19.054;2022-09-09T07:11:42;7.28;;;6.70;;
58758;SDS011;46777;47.482;19.054;2022-09-09T07:14:27;7.40;;;6.38;;
58758;SDS011;46777;47.482;19.054;2022-09-09T07:17:11;7.03;;;6.50;;
58758;SDS011;46777;47.482;19.054;2022-09-09T07:19:56;6.63;;;6.13;;
58758;SDS011;46777;47.482;19.054;2022-09-09T07:22:40;10.70;;;7.25;;
58758;SDS011;46777;47.482;19.054;2022-09-09T07:25:25;8.38;;;6.78;;
58758;SDS011;46777;47.482;19.054;2022-09-09T07:28:13;7.75;;;6.90;;
58758;SDS011;46777;47.482;19.054;2022-09-09T07:30:58;11.20;;;6.53;;
58758;SDS011;46777;47.482;19.054;2022-09-09T07:33:44;7.75;;;7.05;;
58758;SDS011;46777;47.482;19.054;2022-09-09T07:36:36;7.35;;;6.70;;
58758;SDS011;46777;47.482;19.054;2022-09-09T07:39:20;7.63;;;7.03;;
58758;SDS011;46777;47.482;19.054;2022-09-09T07:42:05;7.10;;;6.50;;
58758;SDS011;46777;47.482;19.054;2022-09-09T07:44:49;6.80;;;6.30;;
58758;SDS011;46777;47.482;19.054;2022-09-09T07:47:33;8.18;;;7.38;;
58758;SDS011;46777;47.482;19.054;2022-09-09T07:50:18;7.00;;;6.60;;
58758;SDS011;46777;47.482;19.054;2022-09-09T07:53:02;7.65;;;6.95;;
58758;SDS011;46777;47.482;19.054;2022-09-09T07:55:48;7.28;;;6.80;;
58758;SDS011;46777;47.482;19.054;2022-09-09T07:58:33;7.05;;;6.35;;
58758;SDS011;46777;47.482;19.054;2022-09-09T08:01:27;7.25;;;6.60;;
58758;SDS011;46777;47.482;19.054;2022-09-09T08:04:13;7.07;;;6.57;;
58758;SDS011;46777;47.482;19.054;2022-09-09T08:07:01;7.47;;;6.57;;
58758;SDS011;46777;47.482;19.054;2022-09-09T08:09:47;7.43;;;6.72;;
58758;SDS011;46777;47.482;19.054;2022-09-09T08:12:31;9.70;;;8.80;;
58758;SDS011;46777;47.482;19.054;2022-09-09T08:15:16;8.85;;;8.15;;
58758;SDS011;46777;47.482;19.054;2022-09-09T08:18:01;9.25;;;8.52;;
58758;SDS011;46777;47.482;19.054;2022-09-09T08:20:46;12.73;;;11.63;;
58758;SDS011;46777;47.482;19.054;2022-09-09T08:23:30;11.45;;;10.35;;
58758;SDS011;46777;47.482;19.054;2022-09-09T08:26:19;8.63;;;7.93;;
58758;SDS011;46777;47.482;19.054;2022-09-09T08:29:06;8.27;;;7.57;;
58758;SDS011;46777;47.482;19.054;2022-09-09T08:31:54;7.05;;;6.45;;
58758;SDS011;46777;47.482;19.054;2022-09-09T08:34:38;7.32;;;6.65;;
58758;SDS011;46777;47.482;19.054;2022-09-09T08:37:23;6.82;;;6.28;;
58758;SDS011;46777;47.482;19.054;2022-09-09T08:40:08;7.03;;;6.43;;
58758;SDS011;46777;47.482;19.054;2022-09-09T08:42:53;6.93;;;6.28;;
58758;SDS011;46777;47.482;19.054;2022-09-09T08:51:40;6.95;;;6.32;;
58758;SDS011;46777;47.482;19.054;2022-09-09T08:54:26;7.57;;;6.28;;
58758;SDS011;46777;47.482;19.054;2022-09-09T08:57:18;7.18;;;6.20;;
58758;SDS011;46777;47.482;19.054;2022-09-09T09:00:04;6.85;;;6.25;;
58758;SDS011;46777;47.482;19.054;2022-09-09T09:02:54;7.20;;;6.50;;
58758;SDS011;46777;47.482;19.054;2022-09-09T09:05:54;6.25;;;5.65;;
58758;SDS011;46777;47.482;19.054;2022-09-09T09:08:54;5.97;;;5.57;;
58758;SDS011;46777;47.482;19.054;2022-09-09T09:11:46;6.07;;;5.60;;
58758;SDS011;46777;47.482;19.054;2022-09-09T09:14:33;5.80;;;5.30;;
58758;SDS011;46777;47.482;19.054;2022-09-09T09:17:19;6.55;;;5.95;;
58758;SDS011;46777;47.482;19.054;2022-09-09T09:20:05;6.10;;;5.60;;
58758;SDS011;46777;47.482;19.054;2022-09-09T09:22:51;5.50;;;5.10;;
58758;SDS011;46777;47.482;19.054;2022-09-09T09:25:37;5.55;;;5.22;;
58758;SDS011;46777;47.482;19.054;2022-09-09T09:28:24;5.80;;;5.40;;
58758;SDS011;46777;47.482;19.054;2022-09-09T09:31:09;5.72;;;5.32;;
58758;SDS011;46777;47.482;19.054;2022-09-09T09:33:55;5.97;;;5.45;;
58758;SDS011;46777;47.482;19.054;2022-09-09T09:36:43;5.78;;;5.40;;
58758;SDS011;46777;47.482;19.054;2022-09-09T09:39:31;6.25;;;5.70;;
58758;SDS011;46777;47.482;19.054;2022-09-09T09:42:20;6.10;;;5.63;;
58758;SDS011;46777;47.482;19.054;2022-09-09T09:45:26;5.97;;;5.50;;
58758;SDS011;46777;47.482;19.054;2022-09-09T09:48:12;5.95;;;5.50;;
58758;SDS011;46777;47.482;19.054;2022-09-09T09:50:58;6.15;;;5.75;;
58758;SDS011;46777;47.482;19.054;2022-09-09T09:53:44;6.30;;;5.90;;
58758;SDS011;46777;47.482;19.054;2022-09-09T09:56:29;5.80;;;5.40;;
58758;SDS011;46777;47.482;19.054;2022-09-09T09:59:32;6.50;;;6.00;;
58758;SDS011;46777;47.482;19.054;2022-09-09T10:02:18;6.30;;;5.90;;
58758;SDS011;46777;47.482;19.054;2022-09-09T10:05:12;6.03;;;5.63;;
58758;SDS011;46777;47.482;19.054;2022-09-09T10:08:32;5.97;;;5.57;;
58758;SDS011;46777;47.482;19.054;2022-09-09T10:11:26;6.13;;;5.63;;
58758;SDS011;46777;47.482;19.054;2022-09-09T10:20:15;5.90;;;5.50;;
58758;SDS011;46777;47.482;19.054;2022-09-09T10:23:07;5.95;;;5.47;;
58758;SDS011;46777;47.482;19.054;2022-09-09T10:26:00;6.00;;;5.60;;
58758;SDS011;46777;47.482;19.054;2022-09-09T10:28:55;5.82;;;5.53;;
58758;SDS011;46777;47.482;19.054;2022-09-09T10:37:50;6.03;;;5.50;;
58758;SDS011;46777;47.482;19.054;2022-09-09T10:40:39;6.20;;;5.80;;
58758;SDS011;46777;47.482;19.054;2022-09-09T10:52:03;5.60;;;5.25;;
58758;SDS011;46777;47.482;19.054;2022-09-09T10:58:10;6.10;;;5.70;;
58758;SDS011;46777;47.482;19.054;2022-09-09T11:00:56;5.80;;;5.45;;
58758;SDS011;46777;47.482;19.054;2022-09-09T11:03:47;6.30;;;5.80;;
58758;SDS011;46777;47.482;19.054;2022-09-09T11:06:36;6.20;;;5.80;;
58758;SDS011;46777;47.482;19.054;2022-09-09T11:09:26;6.30;;;5.90;;
58758;SDS011;46777;47.482;19.054;2022-09-09T11:12:13;6.10;;;5.65;;
58758;SDS011;46777;47.482;19.054;2022-09-09T11:15:03;5.70;;;5.30;;
58758;SDS011;46777;47.482;19.054;2022-09-09T11:17:50;5.80;;;5.47;;
58758;SDS011;46777;47.482;19.054;2022-09-09T11:20:36;6.22;;;5.80;;
58758;SDS011;46777;47.482;19.054;2022-09-09T11:23:32;6.00;;;5.70;;
58758;SDS011;46777;47.482;19.054;2022-09-09T11:26:24;6.32;;;5.82;;
58758;SDS011;46777;47.482;19.054;2022-09-09T11:35:11;6.78;;;6.28;;
58758;SDS011;46777;47.482;19.054;2022-09-09T11:41:04;6.10;;;5.70;;
58758;SDS011;46777;47.482;19.054;2022-09-09T11:43:50;6.22;;;5.72;;
58758;SDS011;46777;47.482;19.054;2022-09-09T11:46:36;5.90;;;5.50;;
58758;SDS011;46777;47.482;19.054;2022-09-09T11:49:26;5.65;;;5.25;;
58758;SDS011;46777;47.482;19.054;2022-09-09T11:55:25;6.07;;;5.22;;
58758;SDS011;46777;47.482;19.054;2022-09-09T12:00:55;6.40;;;6.00;;
58758;SDS011;46777;47.482;19.054;2022-09-09T12:03:49;6.35;;;5.85;;
58758;SDS011;46777;47.482;19.054;2022-09-09T12:12:22;5.40;;;5.10;;
58758;SDS011;46777;47.482;19.054;2022-09-09T12:17:51;6.30;;;5.90;;
58758;SDS011;46777;47.482;19.054;2022-09-09T12:20:36;6.32;;;5.88;;
58758;SDS011;46777;47.482;19.054;2022-09-09T12:26:52;5.53;;;5.20;;
58758;SDS011;46777;47.482;19.054;2022-09-09T12:35:12;6.38;;;5.97;;
58758;SDS011;46777;47.482;19.054;2022-09-09T12:37:59;6.30;;;5.82;;
58758;SDS011;46777;47.482;19.054;2022-09-09T12:40:53;6.80;;;6.40;;
58758;SDS011;46777;47.482;19.054;2022-09-09T12:43:38;7.38;;;6.85;;
58758;SDS011;46777;47.482;19.054;2022-09-09T12:46:25;7.30;;;6.80;;
58758;SDS011;46777;47.482;19.054;2022-09-09T12:52:23;8.07;;;7.47;;
58758;SDS011;46777;47.482;19.054;2022-09-09T12:55:15;8.57;;;7.97;;
58758;SDS011;46777;47.482;19.054;2022-09-09T12:58:00;8.48;;;8.07;;
58758;SDS011;46777;47.482;19.054;2022-09-09T13:00:49;9.35;;;8.85;;
58758;SDS011;46777;47.482;19.054;2022-09-09T13:03:41;9.63;;;9.13;;
58758;SDS011;46777;47.482;19.054;2022-09-09T13:06:28;9.55;;;9.05;;
58758;SDS011;46777;47.482;19.054;2022-09-09T13:09:12;7.57;;;7.07;;
58758;SDS011;46777;47.482;19.054;2022-09-09T13:11:56;8.15;;;7.65;;
58758;SDS011;46777;47.482;19.054;2022-09-09T13:14:43;7.20;;;6.70;;
58758;SDS011;46777;47.482;19.054;2022-09-09T13:17:30;6.90;;;6.30;;
58758;SDS011;46777;47.482;19.054;2022-09-09T13:20:18;5.93;;;5.53;;
58758;SDS011;46777;47.482;19.054;2022-09-09T13:23:03;6.10;;;5.75;;
58758;SDS011;46777;47.482;19.054;2022-09-09T13:26:05;6.32;;;5.90;;
58758;SDS011;46777;47.482;19.054;2022-09-09T13:28:50;6.68;;;6.20;;
58758;SDS011;46777;47.482;19.054;2022-09-09T13:31:35;6.63;;;6.03;;
58758;SDS011;46777;47.482;19.054;2022-09-09T13:34:30;6.15;;;5.75;;
58758;SDS011;46777;47.482;19.054;2022-09-09T13:37:34;6.40;;;6.00;;
58758;SDS011;46777;47.482;19.054;2022-09-09T13:40:20;6.13;;;5.72;;
58758;SDS011;46777;47.482;19.054;2022-09-09T13:43:10;6.25;;;5.75;;
58758;SDS011;46777;47.482;19.054;2022-09-09T13:45:59;6.20;;;5.88;;
58758;SDS011;46777;47.482;19.054;2022-09-09T13:48:53;5.57;;;5.18;;
58758;SDS011;46777;47.482;19.054;2022-09-09T13:54:21;5.70;;;5.40;;
58758;SDS011;46777;47.482;19.054;2022-09-09T13:57:20;5.70;;;5.20;;
58758;SDS011;46777;47.482;19.054;2022-09-09T14:00:05;5.90;;;5.50;;
58758;SDS011;46777;47.482;19.054;2022-09-09T14:02:51;5.55;;;5.05;;
58758;SDS011;46777;47.482;19.054;2022-09-09T14:05:36;6.53;;;6.13;;
58758;SDS011;46777;47.482;19.054;2022-09-09T14:08:22;6.13;;;5.68;;
58758;SDS011;46777;47.482;19.054;2022-09-09T14:11:08;5.75;;;5.30;;
58758;SDS011;46777;47.482;19.054;2022-09-09T14:13:56;5.60;;;5.20;;
58758;SDS011;46777;47.482;19.054;2022-09-09T14:16:41;5.80;;;5.40;;
58758;SDS011;46777;47.482;19.054;2022-09-09T14:19:25;5.80;;;5.30;;
58758;SDS011;46777;47.482;19.054;2022-09-09T14:22:09;6.07;;;5.68;;
58758;SDS011;46777;47.482;19.054;2022-09-09T14:24:55;6.05;;;5.65;;
58758;SDS011;46777;47.482;19.054;2022-09-09T14:27:39;6.07;;;5.68;;
58758;SDS011;46777;47.482;19.054;2022-09-09T14:30:24;6.10;;;5.60;;
58758;SDS011;46777;47.482;19.054;2022-09-09T14:33:09;6.18;;;5.63;;
58758;SDS011;46777;47.482;19.054;2022-09-09T14:35:58;6.25;;;5.65;;
58758;SDS011;46777;47.482;19.054;2022-09-09T14:38:43;6.13;;;5.72;;
58758;SDS011;46777;47.482;19.054;2022-09-09T14:41:27;5.95;;;5.60;;
58758;SDS011;46777;47.482;19.054;2022-09-09T14:44:13;6.43;;;5.90;;
58758;SDS011;46777;47.482;19.054;2022-09-09T14:46:58;5.70;;;5.30;;
58758;SDS011;46777;47.482;19.054;2022-09-09T14:49:42;6.15;;;5.75;;
58758;SDS011;46777;47.482;19.054;2022-09-09T14:52:27;6.03;;;5.63;;
58758;SDS011;46777;47.482;19.054;2022-09-09T14:55:13;5.88;;;5.40;;
58758;SDS011;46777;47.482;19.054;2022-09-09T14:57:59;5.88;;;5.40;;
58758;SDS011;46777;47.482;19.054;2022-09-09T15:00:43;6.10;;;5.60;;
58758;SDS011;46777;47.482;19.054;2022-09-09T15:03:27;6.30;;;5.80;;
58758;SDS011;46777;47.482;19.054;2022-09-09T15:06:12;6.25;;;5.85;;
58758;SDS011;46777;47.482;19.054;2022-09-09T15:08:56;5.60;;;5.20;;
58758;SDS011;46777;47.482;19.054;2022-09-09T15:11:44;5.70;;;5.25;;
58758;SDS011;46777;47.482;19.054;2022-09-09T15:14:29;6.10;;;5.60;;
58758;SDS011;46777;47.482;19.054;2022-09-09T15:17:13;6.43;;;5.85;;
58758;SDS011;46777;47.482;19.054;2022-09-09T15:19:58;6.43;;;5.82;;
58758;SDS011;46777;47.482;19.054;2022-09-09T15:22:42;5.95;;;5.50;;
58758;SDS011;46777;47.482;19.054;2022-09-09T15:25:27;5.82;;;5.32;;
58758;SDS011;46777;47.482;19.054;2022-09-09T15:28:12;5.38;;;5.00;;
58758;SDS011;46777;47.482;19.054;2022-09-09T15:30:56;6.10;;;5.70;;
58758;SDS011;46777;47.482;19.054;2022-09-09T15:33:41;6.30;;;5.68;;
58758;SDS011;46777;47.482;19.054;2022-09-09T15:36:25;5.95;;;5.55;;
58758;SDS011;46777;47.482;19.054;2022-09-09T15:39:11;6.20;;;5.80;;
58758;SDS011;46777;47.482;19.054;2022-09-09T15:41:56;6.10;;;5.70;;
58758;SDS011;46777;47.482;19.054;2022-09-09T15:44:41;6.72;;;6.20;;
58758;SDS011;46777;47.482;19.054;2022-09-09T15:47:28;6.50;;;5.90;;
58758;SDS011;46777;47.482;19.054;2022-09-09T15:50:13;5.97;;;5.50;;
58758;SDS011;46777;47.482;19.054;2022-09-09T15:52:57;5.80;;;5.40;;
58758;SDS011;46777;47.482;19.054;2022-09-09T15:55:41;6.00;;;5.60;;
58758;SDS011;46777;47.482;19.054;2022-09-09T15:58:25;5.70;;;5.30;;
58758;SDS011;46777;47.482;19.054;2022-09-09T16:01:09;5.72;;;5.30;;
58758;SDS011;46777;47.482;19.054;2022-09-09T16:03:55;5.20;;;4.80;;
58758;SDS011;46777;47.482;19.054;2022-09-09T16:06:39;5.30;;;4.90;;
58758;SDS011;46777;47.482;19.054;2022-09-09T16:09:24;5.65;;;5.25;;
58758;SDS011;46777;47.482;19.054;2022-09-09T16:12:08;6.07;;;5.63;;
58758;SDS011;46777;47.482;19.054;2022-09-09T16:14:56;5.25;;;4.80;;
58758;SDS011;46777;47.482;19.054;2022-09-09T16:17:41;5.75;;;5.30;;
58758;SDS011;46777;47.482;19.054;2022-09-09T16:20:25;6.05;;;5.65;;
58758;SDS011;46777;47.482;19.054;2022-09-09T16:23:09;7.15;;;6.55;;
58758;SDS011;46777;47.482;19.054;2022-09-09T16:25:54;7.60;;;6.90;;
58758;SDS011;46777;47.482;19.054;2022-09-09T16:28:39;7.45;;;6.85;;
58758;SDS011;46777;47.482;19.054;2022-09-09T16:31:24;7.35;;;6.75;;
58758;SDS011;46777;47.482;19.054;2022-09-09T16:34:09;6.93;;;6.43;;
58758;SDS011;46777;47.482;19.054;2022-09-09T16:36:53;6.68;;;6.13;;
58758;SDS011;46777;47.482;19.054;2022-09-09T16:39:37;6.57;;;6.07;;
58758;SDS011;46777;47.482;19.054;2022-09-09T16:42:21;7.38;;;6.78;;
58758;SDS011;46777;47.482;19.054;2022-09-09T16:45:06;8.80;;;8.02;;
58758;SDS011;46777;47.482;19.054;2022-09-09T16:47:50;8.10;;;7.40;;
58758;SDS011;46777;47.482;19.054;2022-09-09T16:50:35;7.60;;;6.90;;
58758;SDS011;46777;47.482;19.054;2022-09-09T16:53:19;6.72;;;6.10;;
58758;SDS011;46777;47.482;19.054;2022-09-09T16:56:06;5.53;;;5.03;;
58758;SDS011;46777;47.482;19.054;2022-09-09T16:58:51;5.90;;;5.32;;
58758;SDS011;46777;47.482;19.054;2022-09-09T17:01:37;6.22;;;5.63;;
58758;SDS011;46777;47.482;19.054;2022-09-09T17:04:22;8.02;;;6.38;;
58758;SDS011;46777;47.482;19.054;2022-09-09T17:07:09;7.18;;;6.35;;
58758;SDS011;46777;47.482;19.054;2022-09-09T17:09:54;6.63;;;5.97;;
58758;SDS011;46777;47.482;19.054;2022-09-09T17:12:38;7.45;;;6.68;;
58758;SDS011;46777;47.482;19.054;2022-09-09T17:15:24;7.07;;;6.43;;
58758;SDS011;46777;47.482;19.054;2022-09-09T17:18:09;6.63;;;6.13;;
58758;SDS011;46777;47.482;19.054;2022-09-09T17:20:54;7.00;;;6.30;;
58758;SDS011;46777;47.482;19.054;2022-09-09T17:23:38;7.00;;;6.30;;
58758;SDS011;46777;47.482;19.054;2022-09-09T17:26:24;5.28;;;4.88;;
58758;SDS011;46777;47.482;19.054;2022-09-09T17:29:10;5.40;;;4.82;;
58758;SDS011;46777;47.482;19.054;2022-09-09T17:31:55;6.35;;;5.00;;
58758;SDS011;46777;47.482;19.054;2022-09-09T17:34:40;5.80;;;5.20;;
58758;SDS011;46777;47.482;19.054;2022-09-09T17:37:24;5.93;;;5.25;;
58758;SDS011;46777;47.482;19.054;2022-09-09T17:40:09;7.15;;;6.05;;
58758;SDS011;46777;47.482;19.054;2022-09-09T17:42:53;8.75;;;7.85;;
58758;SDS011;46777;47.482;19.054;2022-09-09T17:45:38;7.75;;;5.80;;
58758;SDS011;46777;47.482;19.054;2022-09-09T17:48:24;6.47;;;5.20;;
58758;SDS011;46777;47.482;19.054;2022-09-09T17:51:11;6.82;;;5.35;;
58758;SDS011;46777;47.482;19.054;2022-09-09T17:53:56;5.88;;;5.28;;
58758;SDS011;46777;47.482;19.054;2022-09-09T17:56:42;6.20;;;5.13;;
58758;SDS011;46777;47.482;19.054;2022-09-09T17:59:26;6.50;;;5.88;;
58758;SDS011;46777;47.482;19.054;2022-09-09T18:02:11;5.60;;;5.10;;
58758;SDS011;46777;47.482;19.054;2022-09-09T18:04:55;4.90;;;4.50;;
58758;SDS011;46777;47.482;19.054;2022-09-09T18:07:40;6.97;;;5.72;;
58758;SDS011;46777;47.482;19.054;2022-09-09T18:10:24;5.50;;;5.00;;
58758;SDS011;46777;47.482;19.054;2022-09-09T18:13:08;5.22;;;4.72;;
58758;SDS011;46777;47.482;19.054;2022-09-09T18:15:53;7.20;;;4.85;;
58758;SDS011;46777;47.482;19.054;2022-09-09T18:18:37;5.25;;;4.80;;
58758;SDS011;46777;47.482;19.054;2022-09-09T18:21:23;5.32;;;4.82;;
58758;SDS011;46777;47.482;19.054;2022-09-09T18:24:09;5.68;;;5.20;;
58758;SDS011;46777;47.482;19.054;2022-09-09T18:26:54;6.50;;;5.68;;